sensor_id;sensor_type;location;lat;lon;timestamp;P1;durP1;ratioP1;P2;durP2;ratioP2
20040;SDS011;10181;48.072;9.884;2023-03-01T00:01:07;16.70;;;15.20;;
20040;SDS011;10181;48.072;9.884;2023-03-01T00:03:34;17.07;;;15.47;;
20040;SDS011;10181;48.072;9.884;2023-03-01T00:06:01;15.43;;;14.00;;
20040;SDS011;10181;48.072;9.884;2023-03-01T00:08:27;15.47;;;14.17;;
20040;SDS011;10181;48.072;9.884;2023-03-01T00:13:38;18.07;;;16.50;;
20040;SDS011;10181;48.072;9.884;2023-03-01T00:16:04;16.70;;;15.27;;
20040;SDS011;10181;48.072;9.884;2023-03-01T00:18:34;16.93;;;15.63;;
20040;SDS011;10181;48.072;9.884;2023-03-01T00:21:00;17.17;;;15.67;;
20040;SDS011;10181;48.072;9.884;2023-03-01T00:23:26;18.30;;;16.60;;
20040;SDS011;10181;48.072;9.884;2023-03-01T00:25:52;19.37;;;17.57;;
20040;SDS011;10181;48.072;9.884;2023-03-01T00:28:18;18.70;;;17.20;;
20040;SDS011;10181;48.072;9.884;2023-03-01T00:30:44;17.77;;;16.37;;
20040;SDS011;10181;48.072;9.884;2023-03-01T00:33:10;19.87;;;18.17;;
20040;SDS011;10181;48.072;9.884;2023-03-01T00:35:36;18.93;;;17.23;;
20040;SDS011;10181;48.072;9.884;2023-03-01T00:38:02;17.60;;;16.17;;
20040;SDS011;10181;48.072;9.884;2023-03-01T00:40:29;20.23;;;18.20;;
20040;SDS011;10181;48.072;9.884;2023-03-01T00:42:56;17.50;;;16.00;;
20040;SDS011;10181;48.072;9.884;2023-03-01T00:45:22;18.93;;;17.03;;
20040;SDS011;10181;48.072;9.884;2023-03-01T00:47:48;17.90;;;16.27;;
20040;SDS011;10181;48.072;9.884;2023-03-01T00:50:14;20.27;;;18.20;;
20040;SDS011;10181;48.072;9.884;2023-03-01T00:52:40;19.43;;;17.57;;
20040;SDS011;10181;48.072;9.884;2023-03-01T00:55:06;20.27;;;17.07;;
20040;SDS011;10181;48.072;9.884;2023-03-01T00:57:32;16.53;;;14.87;;
20040;SDS011;10181;48.072;9.884;2023-03-01T00:59:58;15.43;;;13.93;;
20040;SDS011;10181;48.072;9.884;2023-03-01T01:02:24;16.23;;;14.60;;
20040;SDS011;10181;48.072;9.884;2023-03-01T01:04:49;15.53;;;13.43;;
20040;SDS011;10181;48.072;9.884;2023-03-01T01:07:15;13.37;;;12.00;;
20040;SDS011;10181;48.072;9.884;2023-03-01T01:09:41;13.87;;;11.90;;
20040;SDS011;10181;48.072;9.884;2023-03-01T01:12:06;15.97;;;11.07;;
20040;SDS011;10181;48.072;9.884;2023-03-01T01:14:32;13.10;;;11.60;;
20040;SDS011;10181;48.072;9.884;2023-03-01T01:16:58;15.77;;;13.03;;
20040;SDS011;10181;48.072;9.884;2023-03-01T01:19:24;13.33;;;10.73;;
20040;SDS011;10181;48.072;9.884;2023-03-01T01:21:50;13.97;;;12.30;;
20040;SDS011;10181;48.072;9.884;2023-03-01T01:24:17;15.50;;;11.97;;
20040;SDS011;10181;48.072;9.884;2023-03-01T01:26:42;15.37;;;12.43;;
20040;SDS011;10181;48.072;9.884;2023-03-01T01:29:08;16.13;;;12.43;;
20040;SDS011;10181;48.072;9.884;2023-03-01T01:31:35;14.57;;;12.67;;
20040;SDS011;10181;48.072;9.884;2023-03-01T01:34:04;15.80;;;13.53;;
20040;SDS011;10181;48.072;9.884;2023-03-01T01:36:32;15.97;;;13.60;;
20040;SDS011;10181;48.072;9.884;2023-03-01T01:38:58;14.73;;;12.80;;
20040;SDS011;10181;48.072;9.884;2023-03-01T01:41:24;15.50;;;13.27;;
20040;SDS011;10181;48.072;9.884;2023-03-01T01:44:11;14.50;;;12.33;;
20040;SDS011;10181;48.072;9.884;2023-03-01T01:46:39;13.90;;;12.40;;
20040;SDS011;10181;48.072;9.884;2023-03-01T01:49:10;14.53;;;11.93;;
20040;SDS011;10181;48.072;9.884;2023-03-01T01:51:44;14.87;;;11.67;;
20040;SDS011;10181;48.072;9.884;2023-03-01T01:54:30;14.57;;;12.63;;
20040;SDS011;10181;48.072;9.884;2023-03-01T01:57:02;14.17;;;12.80;;
20040;SDS011;10181;48.072;9.884;2023-03-01T01:59:32;14.90;;;12.17;;
20040;SDS011;10181;48.072;9.884;2023-03-01T02:01:59;15.63;;;13.33;;
20040;SDS011;10181;48.072;9.884;2023-03-01T02:04:28;14.73;;;13.23;;
20040;SDS011;10181;48.072;9.884;2023-03-01T02:06:57;14.30;;;12.80;;
20040;SDS011;10181;48.072;9.884;2023-03-01T02:09:43;17.40;;;14.70;;
20040;SDS011;10181;48.072;9.884;2023-03-01T02:12:12;15.97;;;14.30;;
20040;SDS011;10181;48.072;9.884;2023-03-01T02:14:42;15.40;;;13.43;;
20040;SDS011;10181;48.072;9.884;2023-03-01T02:17:08;16.70;;;14.47;;
20040;SDS011;10181;48.072;9.884;2023-03-01T02:19:57;15.07;;;13.57;;
20040;SDS011;10181;48.072;9.884;2023-03-01T02:33:08;22.27;;;20.53;;
20040;SDS011;10181;48.072;9.884;2023-03-01T02:35:35;24.57;;;22.40;;
20040;SDS011;10181;48.072;9.884;2023-03-01T02:38:03;23.17;;;20.93;;
20040;SDS011;10181;48.072;9.884;2023-03-01T02:40:33;23.33;;;21.30;;
20040;SDS011;10181;48.072;9.884;2023-03-01T02:42:59;22.53;;;20.67;;
20040;SDS011;10181;48.072;9.884;2023-03-01T02:45:26;23.67;;;21.33;;
20040;SDS011;10181;48.072;9.884;2023-03-01T02:47:55;24.33;;;22.07;;
20040;SDS011;10181;48.072;9.884;2023-03-01T02:50:44;23.10;;;21.20;;
20040;SDS011;10181;48.072;9.884;2023-03-01T02:53:34;24.10;;;22.03;;
20040;SDS011;10181;48.072;9.884;2023-03-01T02:56:14;26.37;;;24.07;;
20040;SDS011;10181;48.072;9.884;2023-03-01T02:58:41;26.97;;;24.87;;
20040;SDS011;10181;48.072;9.884;2023-03-01T03:01:10;26.30;;;24.00;;
20040;SDS011;10181;48.072;9.884;2023-03-01T03:03:36;27.20;;;24.50;;
20040;SDS011;10181;48.072;9.884;2023-03-01T03:06:01;28.37;;;25.80;;
20040;SDS011;10181;48.072;9.884;2023-03-01T03:08:27;27.27;;;25.03;;
20040;SDS011;10181;48.072;9.884;2023-03-01T03:10:53;27.30;;;24.83;;
20040;SDS011;10181;48.072;9.884;2023-03-01T03:13:18;26.77;;;24.83;;
20040;SDS011;10181;48.072;9.884;2023-03-01T03:15:44;29.17;;;27.10;;
20040;SDS011;10181;48.072;9.884;2023-03-01T03:18:11;28.10;;;26.10;;
20040;SDS011;10181;48.072;9.884;2023-03-01T03:20:39;27.30;;;24.53;;
20040;SDS011;10181;48.072;9.884;2023-03-01T03:23:06;27.87;;;25.50;;
20040;SDS011;10181;48.072;9.884;2023-03-01T03:25:32;27.27;;;25.23;;
20040;SDS011;10181;48.072;9.884;2023-03-01T03:27:57;27.87;;;25.60;;
20040;SDS011;10181;48.072;9.884;2023-03-01T03:30:24;25.40;;;23.30;;
20040;SDS011;10181;48.072;9.884;2023-03-01T03:32:52;26.40;;;24.00;;
20040;SDS011;10181;48.072;9.884;2023-03-01T03:35:22;27.87;;;25.57;;
20040;SDS011;10181;48.072;9.884;2023-03-01T03:37:55;24.47;;;22.37;;
20040;SDS011;10181;48.072;9.884;2023-03-01T03:40:29;25.57;;;23.57;;
20040;SDS011;10181;48.072;9.884;2023-03-01T03:43:09;24.37;;;22.23;;
20040;SDS011;10181;48.072;9.884;2023-03-01T03:45:37;21.70;;;19.73;;
20040;SDS011;10181;48.072;9.884;2023-03-01T03:48:03;24.47;;;21.73;;
20040;SDS011;10181;48.072;9.884;2023-03-01T03:50:30;22.23;;;20.03;;
20040;SDS011;10181;48.072;9.884;2023-03-01T03:52:56;21.70;;;19.80;;
20040;SDS011;10181;48.072;9.884;2023-03-01T03:55:22;23.70;;;21.27;;
20040;SDS011;10181;48.072;9.884;2023-03-01T03:57:48;22.43;;;20.43;;
20040;SDS011;10181;48.072;9.884;2023-03-01T04:00:19;23.50;;;21.47;;
20040;SDS011;10181;48.072;9.884;2023-03-01T04:02:46;22.33;;;20.17;;
20040;SDS011;10181;48.072;9.884;2023-03-01T04:05:14;19.27;;;17.33;;
20040;SDS011;10181;48.072;9.884;2023-03-01T04:07:41;20.73;;;18.57;;
20040;SDS011;10181;48.072;9.884;2023-03-01T04:10:09;20.83;;;18.80;;
20040;SDS011;10181;48.072;9.884;2023-03-01T04:12:36;18.97;;;17.00;;
20040;SDS011;10181;48.072;9.884;2023-03-01T04:15:05;19.67;;;17.23;;
20040;SDS011;10181;48.072;9.884;2023-03-01T04:17:41;17.40;;;15.60;;
20040;SDS011;10181;48.072;9.884;2023-03-01T04:20:09;17.83;;;15.73;;
20040;SDS011;10181;48.072;9.884;2023-03-01T04:22:42;16.53;;;14.80;;
20040;SDS011;10181;48.072;9.884;2023-03-01T04:25:11;15.80;;;14.10;;
20040;SDS011;10181;48.072;9.884;2023-03-01T04:27:39;18.50;;;16.30;;
20040;SDS011;10181;48.072;9.884;2023-03-01T04:30:06;17.63;;;15.23;;
20040;SDS011;10181;48.072;9.884;2023-03-01T04:32:32;18.83;;;16.90;;
20040;SDS011;10181;48.072;9.884;2023-03-01T04:34:58;17.90;;;15.87;;
20040;SDS011;10181;48.072;9.884;2023-03-01T04:37:26;15.93;;;14.13;;
20040;SDS011;10181;48.072;9.884;2023-03-01T04:39:52;17.57;;;15.00;;
20040;SDS011;10181;48.072;9.884;2023-03-01T04:42:18;18.87;;;16.10;;
20040;SDS011;10181;48.072;9.884;2023-03-01T04:44:44;18.37;;;16.10;;
20040;SDS011;10181;48.072;9.884;2023-03-01T04:47:11;17.60;;;14.53;;
20040;SDS011;10181;48.072;9.884;2023-03-01T04:49:37;17.60;;;14.30;;
20040;SDS011;10181;48.072;9.884;2023-03-01T04:52:03;15.27;;;13.57;;
20040;SDS011;10181;48.072;9.884;2023-03-01T04:54:32;18.60;;;14.93;;
20040;SDS011;10181;48.072;9.884;2023-03-01T04:56:59;18.80;;;16.03;;
20040;SDS011;10181;48.072;9.884;2023-03-01T04:59:26;19.70;;;15.00;;
20040;SDS011;10181;48.072;9.884;2023-03-01T05:01:52;16.97;;;15.23;;
20040;SDS011;10181;48.072;9.884;2023-03-01T05:04:22;20.90;;;16.27;;
20040;SDS011;10181;48.072;9.884;2023-03-01T05:06:48;20.10;;;17.47;;
20040;SDS011;10181;48.072;9.884;2023-03-01T05:09:14;16.13;;;14.13;;
20040;SDS011;10181;48.072;9.884;2023-03-01T05:11:40;16.60;;;14.93;;
20040;SDS011;10181;48.072;9.884;2023-03-01T05:14:06;18.73;;;16.77;;
20040;SDS011;10181;48.072;9.884;2023-03-01T05:16:32;19.07;;;17.10;;
20040;SDS011;10181;48.072;9.884;2023-03-01T05:18:58;21.20;;;19.07;;
20040;SDS011;10181;48.072;9.884;2023-03-01T05:21:25;19.33;;;17.50;;
20040;SDS011;10181;48.072;9.884;2023-03-01T05:23:51;20.93;;;18.93;;
20040;SDS011;10181;48.072;9.884;2023-03-01T05:26:17;22.97;;;18.57;;
20040;SDS011;10181;48.072;9.884;2023-03-01T05:28:46;21.37;;;19.23;;
20040;SDS011;10181;48.072;9.884;2023-03-01T05:31:12;20.93;;;19.03;;
20040;SDS011;10181;48.072;9.884;2023-03-01T05:33:38;22.43;;;20.20;;
20040;SDS011;10181;48.072;9.884;2023-03-01T05:36:08;22.83;;;20.77;;
20040;SDS011;10181;48.072;9.884;2023-03-01T05:38:35;22.17;;;20.07;;
20040;SDS011;10181;48.072;9.884;2023-03-01T05:41:01;23.33;;;21.13;;
20040;SDS011;10181;48.072;9.884;2023-03-01T05:43:29;24.97;;;22.83;;
20040;SDS011;10181;48.072;9.884;2023-03-01T05:45:59;26.83;;;24.27;;
20040;SDS011;10181;48.072;9.884;2023-03-01T05:48:25;26.20;;;23.70;;
20040;SDS011;10181;48.072;9.884;2023-03-01T05:50:50;26.10;;;23.60;;
20040;SDS011;10181;48.072;9.884;2023-03-01T05:53:17;25.30;;;22.97;;
20040;SDS011;10181;48.072;9.884;2023-03-01T05:55:46;26.27;;;24.00;;
20040;SDS011;10181;48.072;9.884;2023-03-01T05:58:16;27.17;;;24.77;;
20040;SDS011;10181;48.072;9.884;2023-03-01T06:00:43;23.07;;;21.07;;
20040;SDS011;10181;48.072;9.884;2023-03-01T06:03:11;24.53;;;22.43;;
20040;SDS011;10181;48.072;9.884;2023-03-01T06:05:38;25.33;;;23.10;;
20040;SDS011;10181;48.072;9.884;2023-03-01T06:08:04;26.70;;;24.60;;
20040;SDS011;10181;48.072;9.884;2023-03-01T06:10:30;26.40;;;24.30;;
20040;SDS011;10181;48.072;9.884;2023-03-01T06:12:56;26.00;;;23.97;;
20040;SDS011;10181;48.072;9.884;2023-03-01T06:15:23;25.80;;;23.60;;
20040;SDS011;10181;48.072;9.884;2023-03-01T06:17:49;26.07;;;23.87;;
20040;SDS011;10181;48.072;9.884;2023-03-01T06:20:16;28.03;;;25.43;;
20040;SDS011;10181;48.072;9.884;2023-03-01T06:22:44;26.93;;;24.37;;
20040;SDS011;10181;48.072;9.884;2023-03-01T06:25:11;25.47;;;23.07;;
20040;SDS011;10181;48.072;9.884;2023-03-01T06:27:38;26.83;;;24.60;;
20040;SDS011;10181;48.072;9.884;2023-03-01T06:30:04;24.97;;;22.83;;
20040;SDS011;10181;48.072;9.884;2023-03-01T06:32:32;25.93;;;23.73;;
20040;SDS011;10181;48.072;9.884;2023-03-01T06:34:57;23.50;;;21.33;;
20040;SDS011;10181;48.072;9.884;2023-03-01T06:37:23;25.90;;;23.90;;
20040;SDS011;10181;48.072;9.884;2023-03-01T06:39:50;24.43;;;22.03;;
20040;SDS011;10181;48.072;9.884;2023-03-01T06:42:15;26.40;;;24.00;;
20040;SDS011;10181;48.072;9.884;2023-03-01T06:44:41;25.63;;;23.27;;
20040;SDS011;10181;48.072;9.884;2023-03-01T06:47:07;24.37;;;22.17;;
20040;SDS011;10181;48.072;9.884;2023-03-01T06:49:32;26.47;;;24.37;;
20040;SDS011;10181;48.072;9.884;2023-03-01T06:51:58;26.90;;;24.53;;
20040;SDS011;10181;48.072;9.884;2023-03-01T06:54:23;26.30;;;23.97;;
20040;SDS011;10181;48.072;9.884;2023-03-01T06:56:49;25.87;;;23.57;;
20040;SDS011;10181;48.072;9.884;2023-03-01T06:59:16;26.73;;;24.40;;
20040;SDS011;10181;48.072;9.884;2023-03-01T07:01:42;27.53;;;24.77;;
20040;SDS011;10181;48.072;9.884;2023-03-01T07:04:08;27.80;;;25.20;;
20040;SDS011;10181;48.072;9.884;2023-03-01T07:06:35;25.33;;;22.97;;
20040;SDS011;10181;48.072;9.884;2023-03-01T07:09:01;23.70;;;21.57;;
20040;SDS011;10181;48.072;9.884;2023-03-01T07:11:27;23.47;;;20.87;;
20040;SDS011;10181;48.072;9.884;2023-03-01T07:13:53;27.67;;;25.63;;
20040;SDS011;10181;48.072;9.884;2023-03-01T07:16:19;25.67;;;23.73;;
20040;SDS011;10181;48.072;9.884;2023-03-01T07:18:45;27.23;;;24.70;;
20040;SDS011;10181;48.072;9.884;2023-03-01T07:21:12;26.20;;;23.83;;
20040;SDS011;10181;48.072;9.884;2023-03-01T07:23:38;24.37;;;21.97;;
20040;SDS011;10181;48.072;9.884;2023-03-01T07:26:04;24.17;;;22.17;;
20040;SDS011;10181;48.072;9.884;2023-03-01T07:28:30;25.63;;;23.27;;
20040;SDS011;10181;48.072;9.884;2023-03-01T07:31:00;26.17;;;23.93;;
20040;SDS011;10181;48.072;9.884;2023-03-01T07:33:27;22.77;;;20.90;;
20040;SDS011;10181;48.072;9.884;2023-03-01T07:35:59;25.00;;;22.63;;
20040;SDS011;10181;48.072;9.884;2023-03-01T07:38:26;24.83;;;22.17;;
20040;SDS011;10181;48.072;9.884;2023-03-01T07:40:53;26.63;;;24.37;;
20040;SDS011;10181;48.072;9.884;2023-03-01T07:43:22;24.57;;;22.40;;
20040;SDS011;10181;48.072;9.884;2023-03-01T07:45:47;26.73;;;24.27;;
20040;SDS011;10181;48.072;9.884;2023-03-01T07:48:13;24.07;;;21.70;;
20040;SDS011;10181;48.072;9.884;2023-03-01T07:50:39;26.00;;;23.53;;
20040;SDS011;10181;48.072;9.884;2023-03-01T07:53:04;23.87;;;21.83;;
20040;SDS011;10181;48.072;9.884;2023-03-01T07:55:30;25.13;;;23.10;;
20040;SDS011;10181;48.072;9.884;2023-03-01T07:57:55;23.57;;;21.37;;
20040;SDS011;10181;48.072;9.884;2023-03-01T08:00:21;24.00;;;21.67;;
20040;SDS011;10181;48.072;9.884;2023-03-01T08:02:47;24.00;;;21.73;;
20040;SDS011;10181;48.072;9.884;2023-03-01T08:05:12;26.43;;;23.43;;
20040;SDS011;10181;48.072;9.884;2023-03-01T08:07:40;30.33;;;21.40;;
20040;SDS011;10181;48.072;9.884;2023-03-01T08:10:06;18.57;;;15.63;;
20040;SDS011;10181;48.072;9.884;2023-03-01T08:12:32;17.43;;;15.60;;
20040;SDS011;10181;48.072;9.884;2023-03-01T08:14:57;20.53;;;18.00;;
20040;SDS011;10181;48.072;9.884;2023-03-01T08:17:23;16.57;;;14.60;;
20040;SDS011;10181;48.072;9.884;2023-03-01T08:19:48;19.63;;;14.77;;
20040;SDS011;10181;48.072;9.884;2023-03-01T08:22:14;18.20;;;13.90;;
20040;SDS011;10181;48.072;9.884;2023-03-01T08:24:40;15.07;;;13.10;;
20040;SDS011;10181;48.072;9.884;2023-03-01T08:27:05;17.60;;;14.10;;
20040;SDS011;10181;48.072;9.884;2023-03-01T08:29:31;15.07;;;12.43;;
20040;SDS011;10181;48.072;9.884;2023-03-01T08:31:58;20.57;;;15.83;;
20040;SDS011;10181;48.072;9.884;2023-03-01T08:34:23;18.07;;;13.73;;
20040;SDS011;10181;48.072;9.884;2023-03-01T08:36:49;17.90;;;15.40;;
20040;SDS011;10181;48.072;9.884;2023-03-01T08:39:17;20.67;;;16.10;;
20040;SDS011;10181;48.072;9.884;2023-03-01T08:41:44;18.27;;;15.70;;
20040;SDS011;10181;48.072;9.884;2023-03-01T08:44:11;18.13;;;16.10;;
20040;SDS011;10181;48.072;9.884;2023-03-01T08:46:38;24.43;;;17.27;;
20040;SDS011;10181;48.072;9.884;2023-03-01T08:49:06;16.13;;;14.63;;
20040;SDS011;10181;48.072;9.884;2023-03-01T08:51:32;18.00;;;16.07;;
20040;SDS011;10181;48.072;9.884;2023-03-01T08:54:02;19.03;;;17.00;;
20040;SDS011;10181;48.072;9.884;2023-03-01T08:56:28;20.50;;;16.77;;
20040;SDS011;10181;48.072;9.884;2023-03-01T08:58:54;20.23;;;18.30;;
20040;SDS011;10181;48.072;9.884;2023-03-01T09:01:19;20.50;;;18.40;;
20040;SDS011;10181;48.072;9.884;2023-03-01T09:03:45;22.93;;;19.40;;
20040;SDS011;10181;48.072;9.884;2023-03-01T09:06:11;19.37;;;17.60;;
20040;SDS011;10181;48.072;9.884;2023-03-01T09:08:38;22.33;;;20.30;;
20040;SDS011;10181;48.072;9.884;2023-03-01T09:11:05;20.67;;;18.47;;
20040;SDS011;10181;48.072;9.884;2023-03-01T09:13:32;21.73;;;19.57;;
20040;SDS011;10181;48.072;9.884;2023-03-01T09:15:59;20.27;;;18.33;;
20040;SDS011;10181;48.072;9.884;2023-03-01T09:18:26;21.70;;;19.63;;
20040;SDS011;10181;48.072;9.884;2023-03-01T09:21:00;22.20;;;19.83;;
20040;SDS011;10181;48.072;9.884;2023-03-01T09:23:33;20.30;;;18.30;;
20040;SDS011;10181;48.072;9.884;2023-03-01T09:26:01;18.83;;;16.97;;
20040;SDS011;10181;48.072;9.884;2023-03-01T09:28:26;19.53;;;15.23;;
20040;SDS011;10181;48.072;9.884;2023-03-01T09:30:52;15.23;;;11.80;;
20040;SDS011;10181;48.072;9.884;2023-03-01T09:33:17;18.80;;;14.83;;
20040;SDS011;10181;48.072;9.884;2023-03-01T09:35:43;16.63;;;14.77;;
20040;SDS011;10181;48.072;9.884;2023-03-01T09:38:12;19.80;;;13.50;;
20040;SDS011;10181;48.072;9.884;2023-03-01T09:40:41;18.13;;;12.93;;
20040;SDS011;10181;48.072;9.884;2023-03-01T09:45:48;16.57;;;13.37;;
20040;SDS011;10181;48.072;9.884;2023-03-01T09:48:16;18.10;;;13.33;;
20040;SDS011;10181;48.072;9.884;2023-03-01T09:50:47;15.70;;;12.93;;
20040;SDS011;10181;48.072;9.884;2023-03-01T09:53:13;18.73;;;13.13;;
20040;SDS011;10181;48.072;9.884;2023-03-01T10:06:54;16.30;;;12.10;;
20040;SDS011;10181;48.072;9.884;2023-03-01T10:09:41;16.33;;;12.07;;
20040;SDS011;10181;48.072;9.884;2023-03-01T10:12:10;14.40;;;11.23;;
20040;SDS011;10181;48.072;9.884;2023-03-01T10:14:43;16.97;;;12.27;;
20040;SDS011;10181;48.072;9.884;2023-03-01T10:22:46;14.80;;;10.53;;
20040;SDS011;10181;48.072;9.884;2023-03-01T10:25:15;15.50;;;11.67;;
20040;SDS011;10181;48.072;9.884;2023-03-01T10:30:29;16.57;;;9.63;;
20040;SDS011;10181;48.072;9.884;2023-03-01T10:33:22;15.97;;;10.50;;
20040;SDS011;10181;48.072;9.884;2023-03-01T10:35:51;15.53;;;10.13;;
20040;SDS011;10181;48.072;9.884;2023-03-01T10:38:17;16.90;;;9.97;;
20040;SDS011;10181;48.072;9.884;2023-03-01T10:43:27;19.00;;;10.50;;
20040;SDS011;10181;48.072;9.884;2023-03-01T10:46:11;17.47;;;10.20;;
20040;SDS011;10181;48.072;9.884;2023-03-01T10:49:04;16.77;;;10.47;;
20040;SDS011;10181;48.072;9.884;2023-03-01T10:51:43;15.93;;;9.67;;
20040;SDS011;10181;48.072;9.884;2023-03-01T10:57:00;16.67;;;9.73;;
20040;SDS011;10181;48.072;9.884;2023-03-01T11:04:38;13.30;;;9.20;;
20040;SDS011;10181;48.072;9.884;2023-03-01T11:07:04;17.63;;;9.83;;
20040;SDS011;10181;48.072;9.884;2023-03-01T11:09:33;16.37;;;10.40;;
20040;SDS011;10181;48.072;9.884;2023-03-01T11:12:03;23.23;;;10.80;;
20040;SDS011;10181;48.072;9.884;2023-03-01T11:14:38;18.70;;;9.63;;
20040;SDS011;10181;48.072;9.884;2023-03-01T11:17:29;16.27;;;9.53;;
20040;SDS011;10181;48.072;9.884;2023-03-01T11:20:15;13.47;;;8.53;;
20040;SDS011;10181;48.072;9.884;2023-03-01T11:22:52;13.93;;;10.00;;
20040;SDS011;10181;48.072;9.884;2023-03-01T11:25:20;18.63;;;14.30;;
20040;SDS011;10181;48.072;9.884;2023-03-01T11:28:14;18.57;;;13.87;;
20040;SDS011;10181;48.072;9.884;2023-03-01T11:30:56;17.33;;;13.77;;
20040;SDS011;10181;48.072;9.884;2023-03-01T11:36:04;20.93;;;18.27;;
20040;SDS011;10181;48.072;9.884;2023-03-01T11:38:32;19.97;;;18.13;;
20040;SDS011;10181;48.072;9.884;2023-03-01T11:41:21;18.17;;;16.30;;
20040;SDS011;10181;48.072;9.884;2023-03-01T11:51:39;20.93;;;18.87;;
20040;SDS011;10181;48.072;9.884;2023-03-01T11:54:34;23.20;;;19.20;;
20040;SDS011;10181;48.072;9.884;2023-03-01T11:57:20;20.10;;;18.30;;
20040;SDS011;10181;48.072;9.884;2023-03-01T12:06:11;19.77;;;17.67;;
20040;SDS011;10181;48.072;9.884;2023-03-01T12:14:48;19.53;;;17.00;;
20040;SDS011;10181;48.072;9.884;2023-03-01T12:20:09;17.60;;;15.53;;
20040;SDS011;10181;48.072;9.884;2023-03-01T12:25:28;15.67;;;13.60;;
20040;SDS011;10181;48.072;9.884;2023-03-01T12:35:31;19.27;;;11.47;;
20040;SDS011;10181;48.072;9.884;2023-03-01T12:38:21;16.60;;;10.20;;
20040;SDS011;10181;48.072;9.884;2023-03-01T12:46:39;16.93;;;11.07;;
20040;SDS011;10181;48.072;9.884;2023-03-01T12:49:12;16.47;;;10.47;;
20040;SDS011;10181;48.072;9.884;2023-03-01T12:51:48;15.23;;;13.40;;
20040;SDS011;10181;48.072;9.884;2023-03-01T12:54:31;14.53;;;9.93;;
20040;SDS011;10181;48.072;9.884;2023-03-01T12:57:05;16.43;;;13.73;;
20040;SDS011;10181;48.072;9.884;2023-03-01T12:59:44;16.97;;;15.17;;
20040;SDS011;10181;48.072;9.884;2023-03-01T13:02:35;15.57;;;13.27;;
20040;SDS011;10181;48.072;9.884;2023-03-01T13:08:33;15.47;;;11.60;;
20040;SDS011;10181;48.072;9.884;2023-03-01T13:11:10;15.23;;;13.43;;
20040;SDS011;10181;48.072;9.884;2023-03-01T13:13:41;15.63;;;12.67;;
20040;SDS011;10181;48.072;9.884;2023-03-01T13:21:40;16.70;;;11.43;;
20040;SDS011;10181;48.072;9.884;2023-03-01T13:27:08;16.33;;;12.30;;
20040;SDS011;10181;48.072;9.884;2023-03-01T13:29:45;15.60;;;11.20;;
20040;SDS011;10181;48.072;9.884;2023-03-01T13:37:45;16.10;;;11.27;;
20040;SDS011;10181;48.072;9.884;2023-03-01T13:42:44;15.77;;;13.50;;
20040;SDS011;10181;48.072;9.884;2023-03-01T13:47:57;17.13;;;12.27;;
20040;SDS011;10181;48.072;9.884;2023-03-01T13:50:27;12.80;;;11.23;;
20040;SDS011;10181;48.072;9.884;2023-03-01T13:52:59;16.07;;;11.27;;
20040;SDS011;10181;48.072;9.884;2023-03-01T13:55:35;14.23;;;11.20;;
20040;SDS011;10181;48.072;9.884;2023-03-01T14:00:56;12.90;;;9.70;;
20040;SDS011;10181;48.072;9.884;2023-03-01T14:03:28;12.87;;;10.33;;
20040;SDS011;10181;48.072;9.884;2023-03-01T14:08:27;14.47;;;11.20;;
20040;SDS011;10181;48.072;9.884;2023-03-01T14:13:32;17.43;;;12.40;;
20040;SDS011;10181;48.072;9.884;2023-03-01T14:16:30;15.70;;;10.53;;
20040;SDS011;10181;48.072;9.884;2023-03-01T14:24:47;17.13;;;11.17;;
20040;SDS011;10181;48.072;9.884;2023-03-01T14:27:15;18.07;;;11.17;;
20040;SDS011;10181;48.072;9.884;2023-03-01T14:29:41;18.93;;;11.60;;
20040;SDS011;10181;48.072;9.884;2023-03-01T14:34:46;19.30;;;11.80;;
20040;SDS011;10181;48.072;9.884;2023-03-01T14:37:27;16.20;;;11.53;;
20040;SDS011;10181;48.072;9.884;2023-03-01T14:39:56;20.60;;;17.03;;
20040;SDS011;10181;48.072;9.884;2023-03-01T14:42:23;21.70;;;19.40;;
20040;SDS011;10181;48.072;9.884;2023-03-01T14:44:53;21.40;;;19.27;;
20040;SDS011;10181;48.072;9.884;2023-03-01T14:47:34;19.37;;;15.50;;
20040;SDS011;10181;48.072;9.884;2023-03-01T14:50:25;16.57;;;11.07;;
20040;SDS011;10181;48.072;9.884;2023-03-01T14:52:50;16.73;;;10.60;;
20040;SDS011;10181;48.072;9.884;2023-03-01T14:55:24;13.40;;;10.07;;
20040;SDS011;10181;48.072;9.884;2023-03-01T14:57:53;14.23;;;10.00;;
20040;SDS011;10181;48.072;9.884;2023-03-01T15:00:29;17.63;;;11.80;;
20040;SDS011;10181;48.072;9.884;2023-03-01T15:03:00;17.27;;;10.83;;
20040;SDS011;10181;48.072;9.884;2023-03-01T15:05:46;18.67;;;12.63;;
20040;SDS011;10181;48.072;9.884;2023-03-01T15:08:19;14.53;;;10.17;;
20040;SDS011;10181;48.072;9.884;2023-03-01T15:13:56;15.23;;;13.70;;
20040;SDS011;10181;48.072;9.884;2023-03-01T15:16:23;19.37;;;16.97;;
20040;SDS011;10181;48.072;9.884;2023-03-01T15:18:59;17.77;;;16.07;;
20040;SDS011;10181;48.072;9.884;2023-03-01T15:21:29;19.80;;;17.63;;
20040;SDS011;10181;48.072;9.884;2023-03-01T15:26:44;21.10;;;19.20;;
20040;SDS011;10181;48.072;9.884;2023-03-01T15:29:32;21.30;;;19.20;;
20040;SDS011;10181;48.072;9.884;2023-03-01T15:34:47;20.03;;;18.13;;
20040;SDS011;10181;48.072;9.884;2023-03-01T15:40:00;19.60;;;15.93;;
20040;SDS011;10181;48.072;9.884;2023-03-01T15:47:52;15.23;;;13.03;;
20040;SDS011;10181;48.072;9.884;2023-03-01T15:50:27;18.50;;;13.57;;
20040;SDS011;10181;48.072;9.884;2023-03-01T15:52:54;19.30;;;16.57;;
20040;SDS011;10181;48.072;9.884;2023-03-01T15:57:56;14.07;;;11.70;;
20040;SDS011;10181;48.072;9.884;2023-03-01T16:00:34;16.40;;;12.67;;
20040;SDS011;10181;48.072;9.884;2023-03-01T16:02:59;17.73;;;12.13;;
20040;SDS011;10181;48.072;9.884;2023-03-01T16:05:26;16.97;;;12.10;;
20040;SDS011;10181;48.072;9.884;2023-03-01T16:07:57;17.40;;;11.67;;
20040;SDS011;10181;48.072;9.884;2023-03-01T16:10:22;18.47;;;13.47;;
20040;SDS011;10181;48.072;9.884;2023-03-01T16:12:49;17.73;;;14.27;;
20040;SDS011;10181;48.072;9.884;2023-03-01T16:17:51;14.80;;;11.43;;
20040;SDS011;10181;48.072;9.884;2023-03-01T16:20:17;16.60;;;11.23;;
20040;SDS011;10181;48.072;9.884;2023-03-01T16:22:43;17.43;;;11.07;;
20040;SDS011;10181;48.072;9.884;2023-03-01T16:25:10;15.83;;;10.90;;
20040;SDS011;10181;48.072;9.884;2023-03-01T16:27:37;14.60;;;10.20;;
20040;SDS011;10181;48.072;9.884;2023-03-01T16:30:04;15.30;;;10.40;;
20040;SDS011;10181;48.072;9.884;2023-03-01T16:32:31;16.13;;;10.00;;
20040;SDS011;10181;48.072;9.884;2023-03-01T16:34:56;14.47;;;9.07;;
20040;SDS011;10181;48.072;9.884;2023-03-01T16:37:22;12.50;;;9.70;;
20040;SDS011;10181;48.072;9.884;2023-03-01T16:39:48;15.20;;;9.17;;
20040;SDS011;10181;48.072;9.884;2023-03-01T16:42:16;12.27;;;9.37;;
20040;SDS011;10181;48.072;9.884;2023-03-01T16:44:42;12.90;;;9.03;;
20040;SDS011;10181;48.072;9.884;2023-03-01T16:47:08;12.37;;;8.83;;
20040;SDS011;10181;48.072;9.884;2023-03-01T16:49:34;12.90;;;9.33;;
20040;SDS011;10181;48.072;9.884;2023-03-01T16:51:59;20.20;;;11.53;;
20040;SDS011;10181;48.072;9.884;2023-03-01T16:54:25;15.27;;;9.87;;
20040;SDS011;10181;48.072;9.884;2023-03-01T16:56:50;14.73;;;10.20;;
20040;SDS011;10181;48.072;9.884;2023-03-01T16:59:16;14.27;;;9.87;;
20040;SDS011;10181;48.072;9.884;2023-03-01T17:01:44;13.10;;;10.13;;
20040;SDS011;10181;48.072;9.884;2023-03-01T17:04:10;14.07;;;10.57;;